createdAt,value
2023-03-19T00:00:09.216Z,46.10
2023-03-19T00:01:11.449Z,45.60
2023-03-19T00:02:17.861Z,46.90
2023-03-19T00:03:24.688Z,48.30
2023-03-19T00:04:29.257Z,43.70
2023-03-19T00:05:31.658Z,44.60
2023-03-19T00:06:36.502Z,42.20
2023-03-19T00:07:46.040Z,44.30
2023-03-19T00:08:48.118Z,44.00
2023-03-19T00:09:54.392Z,39.80
2023-03-19T00:11:00.491Z,41.40
2023-03-19T00:12:04.876Z,42.80
2023-03-19T00:13:15.548Z,41.90
2023-03-19T00:14:20.914Z,43.50
2023-03-19T00:15:26.112Z,45.40
2023-03-19T00:16:28.354Z,47.20
2023-03-19T00:17:30.408Z,46.20
2023-03-19T00:18:38.891Z,46.40
2023-03-19T00:19:44.274Z,47.40
2023-03-19T00:20:51.414Z,47.00
2023-03-19T00:21:54.975Z,46.56
2023-03-19T00:22:58.831Z,48.40
2023-03-19T00:24:01.504Z,48.00
2023-03-19T00:25:10.818Z,47.80
2023-03-19T00:26:13.656Z,47.90
2023-03-19T00:27:18.889Z,47.60
2023-03-19T00:28:22.896Z,37.80
2023-03-19T00:29:27.998Z,47.70
2023-03-19T00:30:35.957Z,48.60
2023-03-19T00:31:39.521Z,47.40
2023-03-19T00:32:43.534Z,46.40
2023-03-19T00:33:47.813Z,46.40
2023-03-19T00:34:50.025Z,46.80
2023-03-19T00:35:53.582Z,45.90
2023-03-19T00:36:56.281Z,47.00
2023-03-19T00:37:58.988Z,44.40
2023-03-19T00:39:01.572Z,44.60
2023-03-19T00:40:08.560Z,46.50
2023-03-19T00:41:12.160Z,46.00
2023-03-19T00:42:18.177Z,44.60
2023-03-19T00:43:22.330Z,45.80
2023-03-19T00:44:25.097Z,47.10
2023-03-19T00:45:32.971Z,44.60
2023-03-19T00:46:39.642Z,46.60
2023-03-19T00:47:44.249Z,48.30
2023-03-19T00:48:53.383Z,45.10
2023-03-19T00:49:57.569Z,48.27
2023-03-19T00:51:10.971Z,49.90
2023-03-19T00:52:14.392Z,50.20
2023-03-19T00:53:21.390Z,48.80
2023-03-19T00:54:25.392Z,51.40
2023-03-19T00:55:28.155Z,52.00
2023-03-19T00:56:30.344Z,51.30
2023-03-19T00:57:32.951Z,51.60
2023-03-19T00:58:35.245Z,50.80
2023-03-19T00:59:37.550Z,53.00
2023-03-19T01:00:43.173Z,53.70
2023-03-19T01:01:51.919Z,53.67
2023-03-19T01:02:54.261Z,50.90
2023-03-19T01:03:58.339Z,54.90
2023-03-19T01:05:01.386Z,53.70
2023-03-19T01:06:03.858Z,53.64
2023-03-19T01:07:29.102Z,55.00
2023-03-19T01:08:32.021Z,54.90
2023-03-19T01:09:34.270Z,53.80
2023-03-19T01:10:36.469Z,56.22
2023-03-19T01:11:43.776Z,55.30
2023-03-19T01:12:46.577Z,54.00
2023-03-19T01:13:56.840Z,59.70
2023-03-19T01:14:59.799Z,58.70
2023-03-19T01:16:02.652Z,52.36
2023-03-19T01:17:04.833Z,52.90
2023-03-19T01:18:11.142Z,48.40
2023-03-19T01:19:15.227Z,51.70
2023-03-19T01:20:17.854Z,55.50
2023-03-19T01:21:20.817Z,58.00
2023-03-19T01:22:24.885Z,53.10
2023-03-19T01:23:30.580Z,54.20
2023-03-19T01:24:33.237Z,56.50
2023-03-19T01:25:39.065Z,56.50
2023-03-19T01:26:44.213Z,55.30
2023-03-19T01:27:49.372Z,54.00
2023-03-19T01:28:52.172Z,55.90
2023-03-19T01:30:00.200Z,54.50
2023-03-19T01:31:13.226Z,51.00
2023-03-19T01:32:24.328Z,27.00
2023-03-19T01:33:33.998Z,54.90
2023-03-19T01:34:39.783Z,55.45
2023-03-19T01:35:46.969Z,54.00
2023-03-19T01:36:49.902Z,55.50
2023-03-19T01:37:54.013Z,57.30
2023-03-19T01:38:58.527Z,56.30
2023-03-19T01:40:00.836Z,54.80
2023-03-19T01:41:03.591Z,57.60
2023-03-19T01:42:06.752Z,57.10
2023-03-19T01:43:25.901Z,57.00
2023-03-19T01:44:36.205Z,53.60
2023-03-19T01:46:17.304Z,54.00
2023-03-19T01:47:35.622Z,51.90
2023-03-19T01:48:49.786Z,51.00
2023-03-19T01:49:55.625Z,53.40
2023-03-19T01:50:59.260Z,49.70
2023-03-19T01:52:04.719Z,55.10
2023-03-19T01:53:12.609Z,51.00
2023-03-19T01:54:22.415Z,51.40
2023-03-19T01:55:29.522Z,52.20
2023-03-19T01:56:36.669Z,52.20
2023-03-19T01:58:58.611Z,52.40
2023-03-19T02:00:05.946Z,51.30
2023-03-19T02:01:27.846Z,51.60
2023-03-19T02:02:32.926Z,50.90
2023-03-19T02:03:38.429Z,51.70
2023-03-19T02:04:51.436Z,51.20
2023-03-19T02:05:55.374Z,50.10
2023-03-19T02:06:59.321Z,51.20
2023-03-19T02:08:04.761Z,50.10
2023-03-19T02:09:07.041Z,48.20
2023-03-19T02:10:13.400Z,50.10
2023-03-19T02:11:17.172Z,51.10
2023-03-19T02:12:19.516Z,51.90
2023-03-19T02:13:22.748Z,45.70
2023-03-19T02:14:25.183Z,51.70
2023-03-19T02:15:27.398Z,47.70
2023-03-19T02:16:29.751Z,44.40
2023-03-19T02:17:33.071Z,50.90
2023-03-19T02:18:35.647Z,50.90
2023-03-19T02:21:05.263Z,51.90
2023-03-19T02:22:10.042Z,52.00
2023-03-19T02:23:22.209Z,51.60
2023-03-19T02:24:32.446Z,49.00
2023-03-19T02:25:46.506Z,50.70
2023-03-19T02:26:50.348Z,51.50
2023-03-19T02:27:53.499Z,52.80
2023-03-19T02:28:57.031Z,50.80
2023-03-19T02:30:22.623Z,46.10
2023-03-19T02:31:24.856Z,51.00
2023-03-19T02:32:27.229Z,50.30
2023-03-19T02:33:29.812Z,54.10
2023-03-19T02:35:52.051Z,22.60
2023-03-19T02:37:18.614Z,52.80
2023-03-19T02:38:22.046Z,51.40
2023-03-19T02:39:28.311Z,50.27
2023-03-19T02:40:39.739Z,40.40
2023-03-19T02:41:42.707Z,50.60
2023-03-19T02:42:45.020Z,50.70
2023-03-19T02:43:47.095Z,46.60
2023-03-19T02:44:49.557Z,50.00
2023-03-19T02:45:51.904Z,49.60
2023-03-19T02:46:54.322Z,48.40
2023-03-19T02:47:56.999Z,50.10
2023-03-19T02:48:59.283Z,48.80
2023-03-19T02:50:02.016Z,49.70
2023-03-19T02:51:04.812Z,45.30
2023-03-19T02:52:07.457Z,48.30
2023-03-19T02:53:09.655Z,45.10
2023-03-19T02:54:11.834Z,49.60
2023-03-19T02:55:14.040Z,44.50
2023-03-19T02:56:16.314Z,46.40
2023-03-19T02:57:18.609Z,46.90
2023-03-19T02:58:21.278Z,48.67
2023-03-19T02:59:23.449Z,46.00
2023-03-19T03:00:26.672Z,48.11
2023-03-19T03:01:28.992Z,47.60
2023-03-19T03:02:31.333Z,39.90
2023-03-19T03:03:33.425Z,46.90
2023-03-19T03:04:35.957Z,46.78
2023-03-19T03:05:38.541Z,47.50
2023-03-19T03:06:40.831Z,45.40
2023-03-19T03:07:42.915Z,48.10
2023-03-19T03:08:46.325Z,47.09
2023-03-19T03:09:48.433Z,48.50
2023-03-19T03:10:50.948Z,48.50
2023-03-19T03:11:53.945Z,46.60
2023-03-19T03:12:56.495Z,47.45
2023-03-19T03:13:59.644Z,46.60
2023-03-19T03:15:02.792Z,47.80
2023-03-19T03:16:06.020Z,46.45
2023-03-19T03:17:08.850Z,48.50
2023-03-19T03:18:11.065Z,46.30
2023-03-19T03:19:13.798Z,37.00
2023-03-19T03:20:18.115Z,47.20
2023-03-19T03:21:20.731Z,47.40
2023-03-19T03:22:22.934Z,39.90
2023-03-19T03:23:24.975Z,47.70
2023-03-19T03:24:27.605Z,45.78
2023-03-19T03:25:30.178Z,47.00
2023-03-19T03:26:32.608Z,46.40
2023-03-19T03:27:34.989Z,44.60
2023-03-19T03:28:37.172Z,43.90
2023-03-19T03:29:40.649Z,43.10
2023-03-19T03:30:43.923Z,46.60
2023-03-19T03:31:46.883Z,44.50
2023-03-19T03:32:49.490Z,44.20
2023-03-19T03:33:51.668Z,44.80
2023-03-19T03:34:54.196Z,44.40
2023-03-19T03:35:56.388Z,43.00
2023-03-19T03:36:59.057Z,42.30
2023-03-19T03:38:01.262Z,41.20
2023-03-19T03:39:03.668Z,42.10
2023-03-19T03:40:08.255Z,36.91
2023-03-19T03:41:11.012Z,40.70
2023-03-19T03:42:14.174Z,38.90
2023-03-19T03:43:16.465Z,39.10
2023-03-19T03:44:19.072Z,39.10
2023-03-19T03:45:22.574Z,37.50
2023-03-19T03:46:26.579Z,39.50
2023-03-19T03:47:28.776Z,33.70
2023-03-19T03:48:30.853Z,37.30
2023-03-19T03:49:32.902Z,36.40
2023-03-19T03:50:35.593Z,35.50
2023-03-19T03:51:39.995Z,36.90
2023-03-19T03:52:42.607Z,35.50
2023-03-19T03:53:44.883Z,37.40
2023-03-19T03:54:47.361Z,36.30
2023-03-19T03:55:49.832Z,36.20
2023-03-19T03:56:54.224Z,33.10
2023-03-19T03:57:56.612Z,31.50
2023-03-19T03:58:58.913Z,33.40
2023-03-19T04:00:01.329Z,32.60
2023-03-19T04:01:03.721Z,32.20
2023-03-19T04:02:07.002Z,31.80
2023-03-19T04:03:09.282Z,30.20
2023-03-19T04:04:11.918Z,28.90
2023-03-19T04:05:14.243Z,31.30
2023-03-19T04:06:21.770Z,26.20
2023-03-19T04:07:26.279Z,28.10
2023-03-19T04:08:30.298Z,27.60
2023-03-19T04:09:33.594Z,31.00
2023-03-19T04:10:40.689Z,29.80
2023-03-19T04:11:42.987Z,29.50
2023-03-19T04:12:45.716Z,32.27
2023-03-19T04:13:48.399Z,30.00
2023-03-19T04:14:51.219Z,27.90
2023-03-19T04:15:53.685Z,31.10
2023-03-19T04:16:57.170Z,29.80
2023-03-19T04:17:59.624Z,33.50
2023-03-19T04:19:01.850Z,31.90
2023-03-19T04:20:06.530Z,32.90
2023-03-19T04:21:09.088Z,30.90
2023-03-19T04:22:11.787Z,32.18
2023-03-19T04:23:14.501Z,24.90
2023-03-19T04:24:16.956Z,30.00
2023-03-19T04:25:19.942Z,33.40
2023-03-19T04:26:22.216Z,32.80
2023-03-19T04:27:24.903Z,32.60
2023-03-19T04:28:28.270Z,31.55
2023-03-19T04:29:30.530Z,23.10
2023-03-19T04:30:35.436Z,31.20
2023-03-19T04:31:38.862Z,30.00
2023-03-19T04:32:41.189Z,25.36
2023-03-19T04:33:44.093Z,31.09
2023-03-19T04:34:46.870Z,28.00
2023-03-19T04:35:49.271Z,29.70
2023-03-19T04:36:51.333Z,27.90
2023-03-19T04:37:53.514Z,29.20
2023-03-19T04:38:56.964Z,30.80
2023-03-19T04:39:59.592Z,29.90
2023-03-19T04:41:01.974Z,29.00
2023-03-19T04:42:04.525Z,31.90
2023-03-19T04:43:08.640Z,32.20
2023-03-19T04:44:11.118Z,32.50
2023-03-19T04:45:14.959Z,29.70
2023-03-19T04:46:17.953Z,32.30
2023-03-19T04:47:20.196Z,32.70
2023-03-19T04:48:27.007Z,32.90
2023-03-19T04:49:29.511Z,34.50
2023-03-19T04:50:32.253Z,35.50
2023-03-19T04:51:35.326Z,31.30
2023-03-19T04:52:37.652Z,34.90
2023-03-19T04:53:40.396Z,29.70
2023-03-19T04:54:42.513Z,34.00
2023-03-19T04:55:44.661Z,36.50
2023-03-19T04:56:51.898Z,32.30
2023-03-19T04:57:55.634Z,35.40
2023-03-19T04:58:59.670Z,34.90
2023-03-19T05:00:04.217Z,36.80
2023-03-19T05:01:08.620Z,26.10
2023-03-19T05:02:12.709Z,35.40
2023-03-19T05:03:15.606Z,38.00
2023-03-19T05:04:19.309Z,38.60
2023-03-19T05:05:22.708Z,38.64
2023-03-19T05:06:26.384Z,37.70
2023-03-19T05:07:28.631Z,38.50
2023-03-19T05:08:32.235Z,39.50
2023-03-19T05:09:34.939Z,38.00
2023-03-19T05:10:37.891Z,38.90
2023-03-19T05:11:41.186Z,39.50
2023-03-19T05:12:48.238Z,39.40
2023-03-19T05:13:51.222Z,41.40
2023-03-19T05:14:55.602Z,40.70
2023-03-19T05:15:59.826Z,41.00
2023-03-19T05:17:02.111Z,39.00
2023-03-19T05:18:06.232Z,39.50
2023-03-19T05:19:10.284Z,42.20
2023-03-19T05:20:12.949Z,39.30
2023-03-19T05:21:17.491Z,39.50
2023-03-19T05:22:21.040Z,39.70
2023-03-19T05:23:23.216Z,40.40
2023-03-19T05:24:27.350Z,39.90
2023-03-19T05:25:30.399Z,34.60
2023-03-19T05:26:32.570Z,40.80
2023-03-19T05:27:43.413Z,39.70
2023-03-19T05:28:47.505Z,39.70
2023-03-19T05:29:50.852Z,39.40
2023-03-19T05:31:00.703Z,40.70
2023-03-19T05:32:05.758Z,38.70
2023-03-19T05:33:08.989Z,38.80
2023-03-19T05:34:13.096Z,41.10
2023-03-19T05:35:15.727Z,39.20
2023-03-19T05:36:17.914Z,37.10
2023-03-19T05:37:22.106Z,37.00
2023-03-19T05:38:26.147Z,38.00
2023-03-19T05:39:33.238Z,39.70
2023-03-19T05:40:37.859Z,38.40
2023-03-19T05:41:41.996Z,38.30
2023-03-19T05:42:46.001Z,42.80
2023-03-19T05:43:49.062Z,45.09
2023-03-19T05:44:53.096Z,44.60
2023-03-19T05:46:06.325Z,44.20
2023-03-19T05:47:11.811Z,40.10
2023-03-19T05:48:15.161Z,41.00
2023-03-19T05:49:18.893Z,41.80
2023-03-19T05:50:21.267Z,44.00
2023-03-19T05:51:31.320Z,45.00
2023-03-19T05:52:34.029Z,43.27
2023-03-19T05:53:36.210Z,47.60
2023-03-19T05:54:43.806Z,47.60
2023-03-19T05:55:50.451Z,46.90
2023-03-19T05:56:54.076Z,44.20
2023-03-19T05:58:06.974Z,44.90
2023-03-19T05:59:09.656Z,46.50
2023-03-19T06:00:17.243Z,46.00
2023-03-19T06:01:21.969Z,46.60
2023-03-19T06:02:24.736Z,44.40
2023-03-19T06:03:28.373Z,46.80
2023-03-19T06:04:32.502Z,42.80
2023-03-19T06:05:35.138Z,42.80
2023-03-19T06:06:39.289Z,45.40
2023-03-19T06:07:41.736Z,45.70
2023-03-19T06:08:46.129Z,48.00
2023-03-19T06:10:10.438Z,46.90
2023-03-19T06:11:12.874Z,47.90
2023-03-19T06:12:15.729Z,48.40
2023-03-19T06:13:28.643Z,49.20
2023-03-19T06:14:41.883Z,47.70
2023-03-19T06:15:48.092Z,44.00
2023-03-19T06:16:55.611Z,49.70
2023-03-19T06:17:58.061Z,47.60
2023-03-19T06:19:00.275Z,45.60
2023-03-19T06:20:03.243Z,46.00
2023-03-19T06:21:05.693Z,47.00
2023-03-19T06:22:08.319Z,45.20
2023-03-19T06:23:10.804Z,45.10
2023-03-19T06:24:12.858Z,45.20
2023-03-19T06:25:15.666Z,46.50
2023-03-19T06:26:17.918Z,48.36
2023-03-19T06:27:27.789Z,47.90
2023-03-19T06:28:32.580Z,42.20
2023-03-19T06:29:35.328Z,48.18
2023-03-19T06:30:39.474Z,48.90
2023-03-19T06:31:43.677Z,39.80
2023-03-19T06:32:47.773Z,44.20
2023-03-19T06:33:50.043Z,40.50
2023-03-19T06:34:52.925Z,48.90
2023-03-19T06:35:56.724Z,49.80
2023-03-19T06:36:58.888Z,51.10
2023-03-19T06:38:00.926Z,50.44
2023-03-19T06:39:05.121Z,48.60
2023-03-19T06:40:11.172Z,49.70
2023-03-19T06:41:13.341Z,51.90
2023-03-19T06:42:16.083Z,49.20
2023-03-19T06:43:18.969Z,50.10
2023-03-19T06:44:21.289Z,48.20
2023-03-19T06:45:23.443Z,41.50
2023-03-19T06:46:25.641Z,45.70
2023-03-19T06:47:28.019Z,49.00
2023-03-19T06:48:30.185Z,46.50
2023-03-19T06:49:32.366Z,47.56
2023-03-19T06:50:34.786Z,46.90
2023-03-19T06:51:38.199Z,46.50
2023-03-19T06:52:40.441Z,45.00
2023-03-19T06:53:42.882Z,43.90
2023-03-19T06:54:45.064Z,44.00
2023-03-19T06:55:47.749Z,44.50
2023-03-19T06:56:49.840Z,43.30
2023-03-19T06:57:51.904Z,42.00
2023-03-19T06:58:54.060Z,42.11
2023-03-19T06:59:56.226Z,41.30
2023-03-19T07:00:58.945Z,40.90
2023-03-19T07:02:01.292Z,22.40
2023-03-19T07:03:03.841Z,38.30
2023-03-19T07:04:05.923Z,41.10
2023-03-19T07:05:08.448Z,36.60
2023-03-19T07:06:11.533Z,40.70
2023-03-19T07:07:13.699Z,40.70
2023-03-19T07:08:15.992Z,37.60
2023-03-19T07:09:18.151Z,33.90
2023-03-19T07:10:21.037Z,36.40
2023-03-19T07:11:24.177Z,35.00
2023-03-19T07:12:27.424Z,36.20
2023-03-19T07:13:29.657Z,33.00
2023-03-19T07:14:31.869Z,34.30
2023-03-19T07:15:34.537Z,35.20
2023-03-19T07:16:36.980Z,36.00
2023-03-19T07:17:39.582Z,33.00
2023-03-19T07:18:41.733Z,33.10
2023-03-19T07:19:43.986Z,32.50
2023-03-19T07:20:46.278Z,30.00
2023-03-19T07:21:48.440Z,32.80
2023-03-19T07:22:51.700Z,34.20
2023-03-19T07:23:53.854Z,33.20
2023-03-19T07:24:56.126Z,33.70
2023-03-19T07:25:58.299Z,34.50
2023-03-19T07:27:00.839Z,32.56
2023-03-19T07:28:03.805Z,31.80
2023-03-19T07:29:06.049Z,32.90
2023-03-19T07:30:10.068Z,30.30
2023-03-19T07:31:12.183Z,31.50
2023-03-19T07:32:14.863Z,30.40
2023-03-19T07:33:17.495Z,30.90
2023-03-19T07:34:20.132Z,31.10
2023-03-19T07:35:22.870Z,31.50
2023-03-19T07:36:25.333Z,30.73
2023-03-19T07:37:27.441Z,31.30
2023-03-19T07:38:30.486Z,32.67
2023-03-19T07:39:32.808Z,31.60
2023-03-19T07:40:35.396Z,27.60
2023-03-19T07:41:37.973Z,26.30
2023-03-19T07:42:41.889Z,27.00
2023-03-19T07:43:45.020Z,29.20
2023-03-19T07:44:47.594Z,24.90
2023-03-19T07:45:49.806Z,28.80
2023-03-19T07:46:52.124Z,23.90
2023-03-19T07:47:54.304Z,27.80
2023-03-19T07:48:56.833Z,26.90
2023-03-19T07:50:00.028Z,26.00
2023-03-19T07:51:02.657Z,25.90
2023-03-19T07:52:04.915Z,25.80
2023-03-19T07:53:07.641Z,27.20
2023-03-19T07:54:09.634Z,24.60
2023-03-19T07:55:11.640Z,25.44
2023-03-19T07:56:14.540Z,25.00
2023-03-19T07:57:17.155Z,25.18
2023-03-19T07:58:19.130Z,23.70
2023-03-19T07:59:21.438Z,21.80
2023-03-19T08:00:23.966Z,24.20
2023-03-19T08:01:26.658Z,23.40
2023-03-19T08:02:28.797Z,20.10
2023-03-19T08:03:30.889Z,20.40
2023-03-19T08:04:33.112Z,18.90
2023-03-19T08:05:35.495Z,18.40
2023-03-19T08:06:37.873Z,18.20
2023-03-19T08:07:40.384Z,18.60
2023-03-19T08:08:42.541Z,19.70
2023-03-19T08:09:45.400Z,16.50
2023-03-19T08:10:47.546Z,17.60
2023-03-19T08:11:49.736Z,18.40
2023-03-19T08:12:51.800Z,16.80
2023-03-19T08:13:54.287Z,17.10
2023-03-19T08:14:56.365Z,15.60
2023-03-19T08:15:58.599Z,15.90
2023-03-19T08:17:00.884Z,16.10
2023-03-19T08:18:04.524Z,15.00
2023-03-19T08:19:07.087Z,17.20
2023-03-19T08:20:11.975Z,17.70
2023-03-19T08:21:13.998Z,19.70
2023-03-19T08:22:16.768Z,19.30
2023-03-19T08:23:19.444Z,17.50
2023-03-19T08:24:21.676Z,16.50
2023-03-19T08:25:24.586Z,17.22
2023-03-19T08:26:27.848Z,17.60
2023-03-19T08:27:30.257Z,15.90
2023-03-19T08:28:32.382Z,16.00
2023-03-19T08:29:34.665Z,15.70
2023-03-19T08:30:37.870Z,14.60
2023-03-19T08:31:40.560Z,12.70
2023-03-19T08:32:43.793Z,12.20
2023-03-19T08:33:47.248Z,12.70
2023-03-19T08:34:49.989Z,15.60
2023-03-19T08:35:52.225Z,25.50
2023-03-19T08:36:54.744Z,33.40
2023-03-19T08:37:56.951Z,33.10
2023-03-19T08:38:59.112Z,32.70
2023-03-19T08:40:01.519Z,33.00
2023-03-19T08:41:04.369Z,34.90
2023-03-19T08:42:06.629Z,35.90
2023-03-19T08:43:08.721Z,33.80
2023-03-19T08:44:10.804Z,32.00
2023-03-19T08:45:15.042Z,28.70
2023-03-19T08:46:18.287Z,27.10
2023-03-19T08:47:20.771Z,21.30
2023-03-19T08:48:23.509Z,24.40
2023-03-19T08:49:26.030Z,22.50
2023-03-19T08:50:28.333Z,18.50
2023-03-19T08:51:30.453Z,18.60
2023-03-19T08:52:32.625Z,16.20
2023-03-19T08:53:35.286Z,15.50
2023-03-19T08:54:37.881Z,17.00
2023-03-19T08:55:40.689Z,16.10
2023-03-19T08:56:43.639Z,14.36
2023-03-19T08:57:46.268Z,16.00
2023-03-19T08:58:48.502Z,15.10
2023-03-19T08:59:52.851Z,16.50
2023-03-19T09:01:03.827Z,15.20
2023-03-19T09:02:06.774Z,11.70
2023-03-19T09:03:09.096Z,13.10
2023-03-19T09:04:11.237Z,13.82
2023-03-19T09:05:13.956Z,12.80
2023-03-19T09:06:17.260Z,13.80
2023-03-19T09:07:19.406Z,13.00
2023-03-19T09:08:22.012Z,13.60
2023-03-19T09:09:25.379Z,11.40
2023-03-19T09:10:28.146Z,12.70
2023-03-19T09:11:30.366Z,12.70
2023-03-19T09:12:33.144Z,3.00
2023-03-19T09:13:35.531Z,14.00
2023-03-19T09:14:39.265Z,12.20
2023-03-19T09:15:42.144Z,13.00
2023-03-19T09:16:44.965Z,13.30
2023-03-19T09:17:47.101Z,11.30
2023-03-19T09:18:49.807Z,12.40
2023-03-19T09:19:53.640Z,12.73
2023-03-19T09:20:58.371Z,12.80
2023-03-19T09:22:00.647Z,11.55
2023-03-19T09:23:03.916Z,12.40
2023-03-19T09:24:09.499Z,11.20
2023-03-19T09:25:12.345Z,11.00
2023-03-19T09:26:14.955Z,13.00
2023-03-19T09:27:21.736Z,13.90
2023-03-19T09:28:26.235Z,13.50
2023-03-19T09:29:30.010Z,10.60
2023-03-19T09:30:36.624Z,14.90
2023-03-19T09:31:40.615Z,12.20
2023-03-19T09:32:44.939Z,13.00
2023-03-19T09:33:47.642Z,13.00
2023-03-19T09:34:50.789Z,13.50
2023-03-19T09:35:54.113Z,12.30
2023-03-19T09:37:16.662Z,14.50
2023-03-19T09:38:22.629Z,12.70
2023-03-19T09:39:24.888Z,13.90
2023-03-19T09:40:36.947Z,12.00
2023-03-19T09:42:12.959Z,13.30
2023-03-19T09:43:43.005Z,12.90
2023-03-19T09:44:46.464Z,13.20
2023-03-19T09:45:50.377Z,13.10
2023-03-19T09:47:02.015Z,13.10
2023-03-19T09:49:29.753Z,14.20
2023-03-19T09:50:33.891Z,15.00
2023-03-19T09:53:07.668Z,14.10
2023-03-19T09:54:34.392Z,13.30
2023-03-19T09:55:49.201Z,12.40
2023-03-19T09:56:52.478Z,15.20
2023-03-19T09:59:14.480Z,14.00
2023-03-19T10:00:23.260Z,15.80
2023-03-19T10:01:29.328Z,14.80
2023-03-19T10:02:45.207Z,15.30
2023-03-19T10:03:54.438Z,13.70
2023-03-19T10:05:09.745Z,14.50
2023-03-19T10:06:24.832Z,13.70
2023-03-19T10:07:46.894Z,13.10
2023-03-19T10:08:58.584Z,12.20
2023-03-19T10:10:28.335Z,15.00
2023-03-19T10:11:55.529Z,14.80
2023-03-19T10:13:27.776Z,14.80
2023-03-19T10:14:56.466Z,16.20
2023-03-19T10:16:01.012Z,11.40
2023-03-19T10:17:10.816Z,15.40
2023-03-19T10:18:20.976Z,14.00
2023-03-19T10:20:53.670Z,18.40
2023-03-19T10:21:59.339Z,6.10
2023-03-19T10:23:36.931Z,15.20
2023-03-19T10:24:41.420Z,16.80
2023-03-19T10:25:43.670Z,16.60
2023-03-19T10:26:47.864Z,19.40
2023-03-19T10:27:54.279Z,21.30
2023-03-19T10:29:03.549Z,18.40
2023-03-19T10:30:14.259Z,20.50
2023-03-19T10:31:38.813Z,18.70
2023-03-19T10:32:45.835Z,19.70
2023-03-19T10:34:11.038Z,18.30
2023-03-19T10:35:38.034Z,19.20
2023-03-19T10:36:40.843Z,19.20
2023-03-19T10:37:47.041Z,17.10
2023-03-19T10:38:54.469Z,18.10
2023-03-19T10:39:58.835Z,19.30
2023-03-19T10:41:07.660Z,17.30
2023-03-19T10:43:27.728Z,18.70
2023-03-19T10:44:34.540Z,18.70
2023-03-19T10:45:39.193Z,16.60
2023-03-19T10:46:44.920Z,16.00
2023-03-19T10:47:48.728Z,15.80
2023-03-19T10:48:51.261Z,15.00
2023-03-19T10:49:55.775Z,15.90
2023-03-19T10:51:05.637Z,16.90
2023-03-19T10:53:43.431Z,16.70
2023-03-19T10:54:46.513Z,15.20
2023-03-19T10:55:56.953Z,15.90
2023-03-19T10:57:18.762Z,15.00
2023-03-19T10:58:27.127Z,15.70
2023-03-19T10:59:32.362Z,16.60
2023-03-19T11:00:36.393Z,16.00
2023-03-19T11:01:40.734Z,14.80
2023-03-19T11:02:48.989Z,15.90
2023-03-19T11:03:55.029Z,12.40
2023-03-19T11:06:37.299Z,16.40
2023-03-19T11:07:39.882Z,16.00
2023-03-19T11:08:43.084Z,15.70
2023-03-19T11:09:50.123Z,14.10
2023-03-19T11:10:52.994Z,15.00
2023-03-19T11:13:26.023Z,13.50
2023-03-19T11:14:37.967Z,13.10
2023-03-19T11:15:40.188Z,13.60
2023-03-19T11:16:51.864Z,13.20
2023-03-19T11:17:59.839Z,14.20
2023-03-19T11:19:02.721Z,15.40
2023-03-19T11:21:31.931Z,13.70
2023-03-19T11:22:36.550Z,16.20
2023-03-19T11:23:41.412Z,13.20
2023-03-19T11:25:17.554Z,13.60
2023-03-19T11:26:21.527Z,11.80
2023-03-19T11:27:33.584Z,14.60
2023-03-19T11:28:37.129Z,14.00
2023-03-19T11:29:42.337Z,14.10
2023-03-19T11:31:00.925Z,12.90
2023-03-19T11:33:58.595Z,12.40
2023-03-19T11:35:15.078Z,12.30
2023-03-19T11:36:22.081Z,13.80
2023-03-19T11:39:29.238Z,14.30
2023-03-19T11:40:45.461Z,14.20
2023-03-19T11:42:00.898Z,13.70
2023-03-19T11:43:10.045Z,13.30
2023-03-19T11:44:15.845Z,13.80
2023-03-19T11:45:42.129Z,14.90
2023-03-19T11:48:41.349Z,17.20
2023-03-19T11:51:22.756Z,17.30
2023-03-19T11:52:31.426Z,15.90
2023-03-19T11:56:20.947Z,14.80
2023-03-19T11:57:52.846Z,16.50
2023-03-19T11:59:18.203Z,14.50
2023-03-19T12:00:41.303Z,14.80
2023-03-19T12:02:09.774Z,14.90
2023-03-19T12:03:39.539Z,13.80
2023-03-19T12:04:55.570Z,13.30
2023-03-19T12:06:12.433Z,14.30
2023-03-19T12:07:34.899Z,15.60
2023-03-19T12:08:40.537Z,14.00
2023-03-19T12:09:56.612Z,15.40
2023-03-19T12:11:23.720Z,15.90
2023-03-19T12:12:34.604Z,14.20
2023-03-19T12:13:56.925Z,13.50
2023-03-19T12:15:23.788Z,14.90
2023-03-19T12:16:55.442Z,16.20
2023-03-19T12:20:00.123Z,16.10
2023-03-19T12:21:18.657Z,15.20
2023-03-19T12:22:44.678Z,13.40
2023-03-19T12:24:00.137Z,13.30
2023-03-19T12:25:38.069Z,14.20
2023-03-19T12:28:23.855Z,20.00
2023-03-19T12:30:57.894Z,20.30
2023-03-19T12:33:54.665Z,17.10
2023-03-19T12:35:03.135Z,16.90
2023-03-19T12:36:09.107Z,17.50
2023-03-19T12:37:32.499Z,20.10
2023-03-19T12:38:41.584Z,17.70
2023-03-19T12:39:59.594Z,19.70
2023-03-19T12:41:07.860Z,19.10
2023-03-19T12:42:32.150Z,20.60
2023-03-19T12:44:00.091Z,19.30
2023-03-19T12:45:03.895Z,19.80
2023-03-19T12:46:18.468Z,18.80
2023-03-19T12:48:43.559Z,20.60
2023-03-19T12:49:58.727Z,18.00
2023-03-19T12:52:35.360Z,12.40
2023-03-19T12:53:45.335Z,18.20
2023-03-19T12:54:59.820Z,13.30
2023-03-19T12:56:08.596Z,14.80
2023-03-19T12:58:58.838Z,15.50
2023-03-19T13:00:13.824Z,16.10
2023-03-19T13:01:20.570Z,17.50
2023-03-19T13:02:49.579Z,19.70
2023-03-19T13:04:10.199Z,20.10
2023-03-19T13:05:18.825Z,17.20
2023-03-19T13:06:34.057Z,20.10
2023-03-19T13:07:56.594Z,15.70
2023-03-19T13:09:13.998Z,14.00
2023-03-19T13:12:00.568Z,14.50
2023-03-19T13:13:23.417Z,11.20
2023-03-19T13:14:45.159Z,13.10
2023-03-19T13:15:49.596Z,13.10
2023-03-19T13:18:38.881Z,15.40
2023-03-19T13:19:47.153Z,13.30
2023-03-19T13:21:04.424Z,13.30
2023-03-19T13:22:13.060Z,10.90
2023-03-19T13:23:21.822Z,13.00
2023-03-19T13:29:02.296Z,15.60
2023-03-19T13:30:14.602Z,17.60
2023-03-19T13:31:24.221Z,16.80
2023-03-19T13:32:39.213Z,17.90
2023-03-19T13:33:46.303Z,13.70
2023-03-19T13:34:49.409Z,13.70
2023-03-19T13:35:52.121Z,14.30
2023-03-19T13:38:28.191Z,12.70
2023-03-19T13:39:32.719Z,13.50
2023-03-19T13:40:50.065Z,14.00
2023-03-19T13:42:12.469Z,13.50
2023-03-19T13:43:33.798Z,13.80
2023-03-19T13:44:53.666Z,13.90
2023-03-19T13:46:17.751Z,14.60
2023-03-19T13:47:30.404Z,13.70
2023-03-19T13:48:49.529Z,11.30
2023-03-19T13:50:21.734Z,12.70
2023-03-19T13:51:26.072Z,12.30
2023-03-19T13:52:32.187Z,0.36
2023-03-19T13:53:40.219Z,13.00
2023-03-19T13:54:44.795Z,13.00
2023-03-19T13:55:58.587Z,11.60
2023-03-19T13:57:18.564Z,12.70
2023-03-19T13:58:26.317Z,11.60
2023-03-19T13:59:30.923Z,12.10
2023-03-19T14:00:47.367Z,12.70
2023-03-19T14:01:49.773Z,14.20
2023-03-19T14:02:53.577Z,14.10
2023-03-19T14:03:58.791Z,14.60
2023-03-19T14:05:16.739Z,14.80
2023-03-19T14:06:49.600Z,16.60
2023-03-19T14:07:54.821Z,14.60
2023-03-19T14:08:57.066Z,16.70
2023-03-19T14:10:02.947Z,14.30
2023-03-19T14:11:06.751Z,18.30
2023-03-19T14:12:21.401Z,16.90
2023-03-19T14:14:49.853Z,17.60
2023-03-19T14:15:53.587Z,17.50
2023-03-19T14:16:55.879Z,17.90
2023-03-19T14:18:01.937Z,18.40
2023-03-19T14:19:08.761Z,20.10
2023-03-19T14:20:24.069Z,18.50
2023-03-19T14:21:46.372Z,18.30
2023-03-19T14:23:12.939Z,17.10
2023-03-19T14:26:17.767Z,20.20
2023-03-19T14:27:28.200Z,15.10
2023-03-19T14:28:46.137Z,17.80
2023-03-19T14:29:50.089Z,17.60
2023-03-19T15:35:28.128Z,47.30
2023-03-19T15:36:32.843Z,47.60
2023-03-19T15:39:07.390Z,40.10
2023-03-19T15:40:12.739Z,38.20
2023-03-19T15:41:17.011Z,37.70
2023-03-19T15:42:20.133Z,35.00
2023-03-19T15:43:24.029Z,36.40
2023-03-19T15:44:30.481Z,35.20
2023-03-19T15:45:34.785Z,38.70
2023-03-19T15:46:42.631Z,40.10
2023-03-19T15:49:08.292Z,33.80
2023-03-19T15:50:19.479Z,30.80
2023-03-19T15:51:26.312Z,31.50
2023-03-19T15:52:31.195Z,33.80
2023-03-19T15:53:38.369Z,31.30
2023-03-19T15:54:56.848Z,33.20
2023-03-19T15:56:16.193Z,54.20
2023-03-19T15:57:24.636Z,53.60
2023-03-19T16:00:03.879Z,40.90
2023-03-19T16:01:11.831Z,38.40
2023-03-19T16:04:09.731Z,33.80
2023-03-19T16:05:32.795Z,36.30
2023-03-19T16:06:37.685Z,41.30
2023-03-19T16:07:42.617Z,38.40
2023-03-19T16:08:52.629Z,36.90
2023-03-19T16:09:55.994Z,41.40
2023-03-19T16:11:28.358Z,40.30
2023-03-19T16:12:41.722Z,35.40
2023-03-19T16:15:27.323Z,34.20
2023-03-19T16:16:31.155Z,37.10
2023-03-19T16:17:35.519Z,38.50